Terminal Aerodrome Forecast
Issued by NWS

Home | Current Version | Previous Version | Text Only | Print | Product List | Glossary On
Versions: 1 2 3 4 5 6 7 8 9 10 11 12 13 14 15 16 17
000
FTUS42 TJSJ 292300 RRA
TAFJBQ
TAF
TJBQ 292342Z 3000/3024 VRB05KT P6SM SCT025
     FM301400 07013KT P6SM VCSH SCT025
     FM302300 09008KT P6SM SCT025
      AMD NOT SKED 3002/3011=

USA.gov is the U.S. government's official web portal to all federal, state and local government web resources and services.